createdAt,value
2023-05-15T00:00:44.665Z,94123.00
2023-05-15T00:01:44.499Z,94123.00
2023-05-15T00:02:44.562Z,94121.00
2023-05-15T00:03:44.607Z,94117.00
2023-05-15T00:04:44.492Z,94115.00
2023-05-15T00:05:44.490Z,94113.00
2023-05-15T00:06:44.498Z,94113.00
2023-05-15T00:07:44.576Z,94113.00
2023-05-15T00:08:44.524Z,94111.00
2023-05-15T00:09:44.538Z,94115.00
2023-05-15T00:10:54.137Z,94115.00
2023-05-15T00:11:45.540Z,94113.00
2023-05-15T00:12:44.522Z,94113.00
2023-05-15T00:13:44.527Z,94109.00
2023-05-15T00:14:44.544Z,94107.00
2023-05-15T00:15:44.517Z,94103.00
2023-05-15T00:16:44.578Z,94099.00
2023-05-15T00:17:44.527Z,94101.00
2023-05-15T00:18:44.527Z,94101.00
2023-05-15T00:19:44.486Z,94103.00
2023-05-15T00:20:44.467Z,94101.00
2023-05-15T00:21:44.475Z,94101.00
2023-05-15T00:22:44.469Z,94099.00
2023-05-15T00:23:44.471Z,94093.00
2023-05-15T00:24:44.462Z,94097.00
2023-05-15T00:25:44.437Z,94097.00
2023-05-15T00:26:44.444Z,94093.00
2023-05-15T00:27:44.421Z,94093.00
2023-05-15T00:28:44.420Z,94099.00
2023-05-15T00:29:44.406Z,94093.00
2023-05-15T00:30:44.403Z,94095.00
2023-05-15T00:31:44.525Z,94093.00
2023-05-15T00:32:44.435Z,94095.00
2023-05-15T00:33:44.370Z,94093.00
2023-05-15T00:34:44.378Z,94093.00
2023-05-15T00:35:44.378Z,94093.00
2023-05-15T00:36:44.361Z,94091.00
2023-05-15T00:37:44.362Z,94091.00
2023-05-15T00:38:44.357Z,94093.00
2023-05-15T00:39:44.347Z,94093.00
2023-05-15T00:40:44.342Z,94091.00
2023-05-15T00:41:44.326Z,94087.00
2023-05-15T00:42:44.335Z,94087.00
2023-05-15T00:43:44.351Z,94087.00
2023-05-15T00:44:44.329Z,94086.00
2023-05-15T00:45:44.323Z,94084.00
2023-05-15T00:46:44.361Z,94086.00
2023-05-15T00:47:44.333Z,94086.00
2023-05-15T00:48:44.283Z,94086.00
2023-05-15T00:49:44.277Z,94086.00
2023-05-15T00:50:44.276Z,94087.00
2023-05-15T00:51:44.269Z,94087.00
2023-05-15T00:52:44.254Z,94086.00
2023-05-15T00:53:44.299Z,94086.00
2023-05-15T00:54:44.240Z,94082.00
2023-05-15T00:55:44.240Z,94086.00
2023-05-15T00:56:44.220Z,94086.00
2023-05-15T00:57:44.218Z,94089.00
2023-05-15T00:58:44.209Z,94089.00
2023-05-15T00:59:44.213Z,94089.00
2023-05-15T01:00:44.242Z,94086.00
2023-05-15T01:01:44.189Z,94086.00
2023-05-15T01:02:44.292Z,94089.00
2023-05-15T01:03:44.189Z,94091.00
2023-05-15T01:04:44.157Z,94091.00
2023-05-15T01:05:44.152Z,94095.00
2023-05-15T01:06:44.141Z,94091.00
2023-05-15T01:07:44.169Z,94093.00
2023-05-15T01:08:44.154Z,94095.00
2023-05-15T01:09:44.143Z,94091.00
2023-05-15T01:10:44.482Z,94091.00
2023-05-15T01:11:44.144Z,94091.00
2023-05-15T01:12:44.139Z,94091.00
2023-05-15T01:13:44.146Z,94093.00
2023-05-15T01:14:44.139Z,94093.00
2023-05-15T01:15:44.501Z,94093.00
2023-05-15T01:16:44.169Z,94095.00
2023-05-15T01:17:44.206Z,94095.00
2023-05-15T01:18:44.296Z,94095.00
2023-05-15T01:19:44.242Z,94093.00
2023-05-15T01:20:44.170Z,94093.00
2023-05-15T01:21:44.187Z,94089.00
2023-05-15T01:22:44.229Z,94089.00
2023-05-15T01:23:44.271Z,94087.00
2023-05-15T01:24:44.289Z,94087.00
2023-05-15T01:25:44.315Z,94089.00
2023-05-15T01:26:44.351Z,94091.00
2023-05-15T01:27:44.370Z,94091.00
2023-05-15T01:28:44.391Z,94091.00
2023-05-15T01:29:44.392Z,94091.00
2023-05-15T01:30:44.447Z,94095.00
2023-05-15T01:31:44.445Z,94095.00
2023-05-15T01:32:44.505Z,94093.00
2023-05-15T01:33:44.467Z,94089.00
2023-05-15T01:34:44.472Z,94089.00
2023-05-15T01:35:44.473Z,94087.00
2023-05-15T01:36:44.460Z,94091.00
2023-05-15T01:37:44.463Z,94093.00
2023-05-15T01:38:44.458Z,94097.00
2023-05-15T01:39:44.466Z,94099.00
2023-05-15T01:40:44.451Z,94097.00
2023-05-15T01:41:44.440Z,94095.00
2023-05-15T01:42:44.442Z,94093.00
2023-05-15T01:43:44.429Z,94097.00
2023-05-15T01:44:44.432Z,94097.00
2023-05-15T01:45:44.432Z,94101.00
2023-05-15T01:46:44.504Z,94099.00
2023-05-15T01:47:44.443Z,94101.00
2023-05-15T01:48:44.420Z,94101.00
2023-05-15T01:49:44.403Z,94099.00
2023-05-15T01:50:44.423Z,94099.00
2023-05-15T01:51:44.456Z,94099.00
2023-05-15T01:52:44.379Z,94103.00
2023-05-15T01:53:44.494Z,94105.00
2023-05-15T01:54:44.391Z,94107.00
2023-05-15T01:55:44.387Z,94105.00
2023-05-15T01:56:44.379Z,94105.00
2023-05-15T01:57:44.380Z,94103.00
2023-05-15T01:58:44.386Z,94099.00
2023-05-15T01:59:44.366Z,94099.00
2023-05-15T02:00:44.367Z,94099.00
2023-05-15T02:01:44.409Z,94099.00
2023-05-15T02:02:44.401Z,94101.00
2023-05-15T02:03:44.402Z,94103.00
2023-05-15T02:04:44.345Z,94105.00
2023-05-15T02:05:44.341Z,94113.00
2023-05-15T02:06:44.331Z,94109.00
2023-05-15T02:07:44.335Z,94109.00
2023-05-15T02:08:44.316Z,94109.00
2023-05-15T02:09:44.327Z,94109.00
2023-05-15T02:10:44.340Z,94109.00
2023-05-15T02:11:44.328Z,94111.00
2023-05-15T02:12:44.320Z,94111.00
2023-05-15T02:13:44.319Z,94111.00
2023-05-15T02:14:44.309Z,94109.00
2023-05-15T02:15:44.343Z,94113.00
2023-05-15T02:16:44.356Z,94109.00
2023-05-15T02:17:44.315Z,94109.00
2023-05-15T02:18:44.340Z,94105.00
2023-05-15T02:19:44.299Z,94107.00
2023-05-15T02:20:44.294Z,94107.00
2023-05-15T02:21:44.289Z,94109.00
2023-05-15T02:22:44.296Z,94107.00
2023-05-15T02:23:44.288Z,94109.00
2023-05-15T02:24:44.289Z,94109.00
2023-05-15T02:25:44.283Z,94105.00
2023-05-15T02:26:44.303Z,94107.00
2023-05-15T02:27:44.275Z,94105.00
2023-05-15T02:28:44.295Z,94103.00
2023-05-15T02:29:44.271Z,94105.00
2023-05-15T02:30:44.276Z,94107.00
2023-05-15T02:31:44.283Z,94103.00
2023-05-15T02:32:44.310Z,94099.00
2023-05-15T02:33:44.261Z,94099.00
2023-05-15T02:34:44.264Z,94097.00
2023-05-15T02:35:44.267Z,94099.00
2023-05-15T02:36:44.275Z,94099.00
2023-05-15T02:37:44.258Z,94099.00
2023-05-15T02:38:44.261Z,94095.00
2023-05-15T02:39:44.268Z,94097.00
2023-05-15T02:40:44.273Z,94095.00
2023-05-15T02:41:44.254Z,94099.00
2023-05-15T02:42:44.254Z,94099.00
2023-05-15T02:43:44.250Z,94097.00
2023-05-15T02:44:44.263Z,94103.00
2023-05-15T02:45:44.283Z,94099.00
2023-05-15T02:46:44.249Z,94097.00
2023-05-15T02:47:44.298Z,94103.00
2023-05-15T02:48:44.282Z,94103.00
2023-05-15T02:49:44.253Z,94103.00
2023-05-15T02:50:44.249Z,94103.00
2023-05-15T02:51:44.250Z,94105.00
2023-05-15T02:52:44.241Z,94105.00
2023-05-15T02:53:44.276Z,94107.00
2023-05-15T02:54:44.258Z,94103.00
2023-05-15T02:55:44.256Z,94101.00
2023-05-15T02:56:44.250Z,94105.00
2023-05-15T02:57:44.247Z,94101.00
2023-05-15T02:58:44.263Z,94101.00
2023-05-15T02:59:44.296Z,94101.00
2023-05-15T03:00:44.262Z,94099.00
2023-05-15T03:01:44.286Z,94097.00
2023-05-15T03:02:44.318Z,94097.00
2023-05-15T03:03:44.258Z,94099.00
2023-05-15T03:04:44.309Z,94101.00
2023-05-15T03:05:44.280Z,94103.00
2023-05-15T03:06:44.271Z,94105.00
2023-05-15T03:07:44.265Z,94105.00
2023-05-15T03:08:44.262Z,94105.00
2023-05-15T03:09:44.253Z,94103.00
2023-05-15T03:10:44.638Z,94103.00
2023-05-15T03:11:44.302Z,94101.00
2023-05-15T03:12:44.259Z,94101.00
2023-05-15T03:13:44.264Z,94099.00
2023-05-15T03:14:44.259Z,94095.00
2023-05-15T03:15:44.255Z,94097.00
2023-05-15T03:16:44.274Z,94095.00
2023-05-15T03:17:44.271Z,94099.00
2023-05-15T03:18:44.257Z,94099.00
2023-05-15T03:19:44.239Z,94103.00
2023-05-15T03:20:44.249Z,94105.00
2023-05-15T03:21:44.284Z,94103.00
2023-05-15T03:22:44.265Z,94103.00
2023-05-15T03:23:44.287Z,94105.00
2023-05-15T03:24:44.264Z,94107.00
2023-05-15T03:25:44.269Z,94109.00
2023-05-15T03:26:44.274Z,94111.00
2023-05-15T03:27:44.265Z,94113.00
2023-05-15T03:28:44.299Z,94113.00
2023-05-15T03:29:44.273Z,94117.00
2023-05-15T03:30:44.280Z,94117.00
2023-05-15T03:31:44.373Z,94117.00
2023-05-15T03:32:44.318Z,94119.00
2023-05-15T03:33:44.296Z,94117.00
2023-05-15T03:34:44.300Z,94117.00
2023-05-15T03:35:44.313Z,94117.00
2023-05-15T03:36:44.339Z,94113.00
2023-05-15T03:37:44.306Z,94115.00
2023-05-15T03:38:44.328Z,94111.00
2023-05-15T03:39:44.342Z,94111.00
2023-05-15T03:40:44.308Z,94109.00
2023-05-15T03:41:44.323Z,94111.00
2023-05-15T03:42:44.341Z,94113.00
2023-05-15T03:43:44.336Z,94113.00
2023-05-15T03:44:44.329Z,94111.00
2023-05-15T03:45:44.343Z,94111.00
2023-05-15T03:46:44.383Z,94111.00
2023-05-15T03:47:44.378Z,94115.00
2023-05-15T03:48:44.351Z,94111.00
2023-05-15T03:49:44.358Z,94111.00
2023-05-15T03:50:44.358Z,94113.00
2023-05-15T03:51:44.376Z,94117.00
2023-05-15T03:52:44.383Z,94119.00
2023-05-15T03:53:44.377Z,94121.00
2023-05-15T03:54:44.385Z,94123.00
2023-05-15T03:55:44.395Z,94132.00
2023-05-15T03:56:44.398Z,94134.00
2023-05-15T03:57:44.404Z,94134.00
2023-05-15T03:58:44.404Z,94136.00
2023-05-15T03:59:44.409Z,94136.00
2023-05-15T04:00:44.421Z,94138.00
2023-05-15T04:02:02.792Z,94138.00
2023-05-15T04:02:45.509Z,94138.00
2023-05-15T04:03:44.469Z,94140.00
2023-05-15T04:04:44.456Z,94138.00
2023-05-15T04:05:44.486Z,94136.00
2023-05-15T04:06:44.390Z,94138.00
2023-05-15T04:07:44.388Z,94136.00
2023-05-15T04:08:44.381Z,94136.00
2023-05-15T04:09:44.384Z,94136.00
2023-05-15T04:10:44.361Z,94136.00
2023-05-15T04:11:44.358Z,94138.00
2023-05-15T04:12:44.351Z,94136.00
2023-05-15T04:13:44.355Z,94138.00
2023-05-15T04:14:44.337Z,94138.00
2023-05-15T04:15:44.341Z,94140.00
2023-05-15T04:16:44.554Z,94140.00
2023-05-15T04:17:44.344Z,94140.00
2023-05-15T04:18:44.349Z,94138.00
2023-05-15T04:19:44.297Z,94142.00
2023-05-15T04:20:44.291Z,94144.00
2023-05-15T04:21:44.301Z,94140.00
2023-05-15T04:22:44.274Z,94142.00
2023-05-15T04:23:44.274Z,94140.00
2023-05-15T04:24:44.272Z,94142.00
2023-05-15T04:25:44.271Z,94146.00
2023-05-15T04:26:44.305Z,94148.00
2023-05-15T04:27:44.333Z,94146.00
2023-05-15T04:28:52.484Z,94150.00
2023-05-15T04:29:45.232Z,94148.00
2023-05-15T04:30:44.219Z,94150.00
2023-05-15T04:31:44.278Z,94150.00
2023-05-15T04:32:44.237Z,94150.00
2023-05-15T04:33:44.217Z,94154.00
2023-05-15T04:34:44.186Z,94154.00
2023-05-15T04:35:44.177Z,94154.00
2023-05-15T04:36:44.174Z,94154.00
2023-05-15T04:37:44.159Z,94154.00
2023-05-15T04:38:44.168Z,94156.00
2023-05-15T04:39:44.163Z,94154.00
2023-05-15T04:40:44.158Z,94154.00
2023-05-15T04:41:44.139Z,94158.00
2023-05-15T04:42:44.126Z,94158.00
2023-05-15T04:43:44.124Z,94160.00
2023-05-15T04:44:44.124Z,94158.00
2023-05-15T04:45:44.129Z,94158.00
2023-05-15T04:46:44.103Z,94156.00
2023-05-15T04:47:44.143Z,94158.00
2023-05-15T04:48:44.091Z,94158.00
2023-05-15T04:49:44.080Z,94158.00
2023-05-15T04:50:44.078Z,94158.00
2023-05-15T04:51:44.077Z,94158.00
2023-05-15T04:52:44.065Z,94158.00
2023-05-15T04:53:44.057Z,94162.00
2023-05-15T04:54:44.046Z,94160.00
2023-05-15T04:55:44.044Z,94164.00
2023-05-15T04:56:44.043Z,94164.00
2023-05-15T04:57:44.024Z,94164.00
2023-05-15T04:58:44.049Z,94166.00
2023-05-15T04:59:44.012Z,94168.00
2023-05-15T05:00:44.007Z,94170.00
2023-05-15T05:01:44.067Z,94170.00
2023-05-15T05:02:44.021Z,94174.00
2023-05-15T05:03:44.004Z,94176.00
2023-05-15T05:04:44.007Z,94178.00
2023-05-15T05:05:43.991Z,94176.00
2023-05-15T05:06:43.974Z,94178.00
2023-05-15T05:07:43.963Z,94178.00
2023-05-15T05:08:43.969Z,94178.00
2023-05-15T05:09:43.974Z,94181.00
2023-05-15T05:10:44.001Z,94181.00
2023-05-15T05:11:44.009Z,94178.00
2023-05-15T05:12:44.009Z,94179.00
2023-05-15T05:13:44.017Z,94178.00
2023-05-15T05:14:44.096Z,94179.00
2023-05-15T05:15:44.053Z,94181.00
2023-05-15T05:16:44.076Z,94183.00
2023-05-15T05:17:44.132Z,94183.00
2023-05-15T05:18:44.105Z,94185.00
2023-05-15T05:19:44.068Z,94189.00
2023-05-15T05:20:44.074Z,94189.00
2023-05-15T05:21:44.085Z,94189.00
2023-05-15T05:22:44.104Z,94193.00
2023-05-15T05:23:44.139Z,94193.00
2023-05-15T05:24:44.097Z,94197.00
2023-05-15T05:25:44.135Z,94197.00
2023-05-15T05:26:44.665Z,94195.00
2023-05-15T05:27:44.110Z,94199.00
2023-05-15T05:28:44.274Z,94197.00
2023-05-15T05:29:44.172Z,94197.00
2023-05-15T05:30:44.130Z,94199.00
2023-05-15T05:31:44.625Z,94193.00
2023-05-15T05:32:44.181Z,94193.00
2023-05-15T05:33:44.153Z,94193.00
2023-05-15T05:34:44.226Z,94193.00
2023-05-15T05:35:44.202Z,94193.00
2023-05-15T05:36:44.620Z,94191.00
2023-05-15T05:37:44.202Z,94193.00
2023-05-15T05:38:44.158Z,94189.00
2023-05-15T05:39:44.175Z,94189.00
2023-05-15T05:40:44.170Z,94187.00
2023-05-15T05:41:44.195Z,94187.00
2023-05-15T05:42:44.160Z,94187.00
2023-05-15T05:43:44.156Z,94189.00
2023-05-15T05:44:44.161Z,94187.00
2023-05-15T05:45:44.188Z,94191.00
2023-05-15T05:46:45.179Z,94193.00
2023-05-15T05:47:44.206Z,94197.00
2023-05-15T05:48:44.126Z,94195.00
2023-05-15T05:49:44.184Z,94193.00
2023-05-15T05:50:44.163Z,94195.00
2023-05-15T05:51:44.191Z,94197.00
2023-05-15T05:52:44.112Z,94195.00
2023-05-15T05:53:44.129Z,94195.00
2023-05-15T05:54:44.129Z,94195.00
2023-05-15T05:55:44.152Z,94189.00
2023-05-15T05:56:44.172Z,94191.00
2023-05-15T05:57:44.234Z,94189.00
2023-05-15T05:58:44.185Z,94191.00
2023-05-15T05:59:44.177Z,94193.00
2023-05-15T06:00:44.172Z,94193.00
2023-05-15T06:01:44.186Z,94197.00
2023-05-15T06:02:44.303Z,94199.00
2023-05-15T06:03:44.354Z,94197.00
2023-05-15T06:04:44.221Z,94201.00
2023-05-15T06:05:44.213Z,94201.00
2023-05-15T06:06:44.267Z,94203.00
2023-05-15T06:07:44.275Z,94203.00
2023-05-15T06:08:44.295Z,94203.00
2023-05-15T06:09:44.336Z,94203.00
2023-05-15T06:10:44.386Z,94205.00
2023-05-15T06:11:44.470Z,94203.00
2023-05-15T06:12:44.495Z,94203.00
2023-05-15T06:13:44.541Z,94203.00
2023-05-15T06:14:44.573Z,94203.00
2023-05-15T06:15:44.600Z,94201.00
2023-05-15T06:16:44.691Z,94199.00
2023-05-15T06:17:45.171Z,94195.00
2023-05-15T06:18:44.693Z,94197.00
2023-05-15T06:19:45.704Z,94193.00
2023-05-15T06:20:44.813Z,94197.00
2023-05-15T06:21:44.902Z,94197.00
2023-05-15T06:22:44.920Z,94199.00
2023-05-15T06:23:45.031Z,94199.00
2023-05-15T06:24:45.044Z,94203.00
2023-05-15T06:25:45.132Z,94205.00
2023-05-15T06:26:45.195Z,94203.00
2023-05-15T06:27:45.224Z,94201.00
2023-05-15T06:28:45.295Z,94203.00
2023-05-15T06:29:45.360Z,94203.00
2023-05-15T06:30:45.442Z,94201.00
2023-05-15T06:31:45.493Z,94203.00
2023-05-15T06:32:45.570Z,94201.00
2023-05-15T06:33:45.617Z,94199.00
2023-05-15T06:34:45.647Z,94201.00
2023-05-15T06:35:46.623Z,94199.00
2023-05-15T06:36:46.173Z,94199.00
2023-05-15T06:37:45.865Z,94203.00
2023-05-15T06:38:45.963Z,94203.00
2023-05-15T06:39:46.061Z,94203.00
2023-05-15T06:40:46.679Z,94205.00
2023-05-15T06:41:46.093Z,94205.00
2023-05-15T06:42:46.142Z,94207.00
2023-05-15T06:43:46.216Z,94211.00
2023-05-15T06:44:46.273Z,94213.00
2023-05-15T06:45:46.381Z,94213.00
2023-05-15T06:46:46.507Z,94217.00
2023-05-15T06:47:46.527Z,94219.00
2023-05-15T06:48:46.526Z,94219.00
2023-05-15T06:49:46.567Z,94217.00
2023-05-15T06:50:46.613Z,94219.00
2023-05-15T06:51:46.839Z,94219.00
2023-05-15T06:52:46.744Z,94219.00
2023-05-15T06:53:46.808Z,94219.00
2023-05-15T06:54:46.898Z,94217.00
2023-05-15T06:55:46.925Z,94223.00
2023-05-15T06:56:46.977Z,94221.00
2023-05-15T06:57:47.040Z,94219.00
2023-05-15T06:58:47.104Z,94217.00
2023-05-15T06:59:47.141Z,94219.00
2023-05-15T07:00:47.258Z,94217.00
2023-05-15T07:01:47.287Z,94219.00
2023-05-15T07:02:47.407Z,94219.00
2023-05-15T07:03:47.391Z,94217.00
2023-05-15T07:04:47.490Z,94219.00
2023-05-15T07:05:47.499Z,94219.00
2023-05-15T07:06:47.554Z,94221.00
2023-05-15T07:07:47.726Z,94221.00
2023-05-15T07:08:47.653Z,94221.00
2023-05-15T07:09:47.720Z,94223.00
2023-05-15T07:10:47.818Z,94219.00
2023-05-15T07:11:47.835Z,94225.00
2023-05-15T07:12:47.931Z,94225.00
2023-05-15T07:13:47.964Z,94225.00
2023-05-15T07:14:48.041Z,94225.00
2023-05-15T07:15:48.056Z,94223.00
2023-05-15T07:16:48.116Z,94225.00
2023-05-15T07:17:48.251Z,94223.00
2023-05-15T07:18:48.319Z,94225.00
2023-05-15T07:19:48.274Z,94225.00
2023-05-15T07:20:48.331Z,94229.00
2023-05-15T07:21:48.365Z,94229.00
2023-05-15T07:22:56.455Z,94231.00
2023-05-15T07:23:49.415Z,94231.00
2023-05-15T07:24:48.399Z,94234.00
2023-05-15T07:25:48.403Z,94233.00
2023-05-15T07:26:58.141Z,94229.00
2023-05-15T07:27:49.382Z,94231.00
2023-05-15T07:28:48.377Z,94231.00
2023-05-15T07:29:48.367Z,94229.00
2023-05-15T07:30:48.363Z,94227.00
2023-05-15T07:31:48.389Z,94229.00
2023-05-15T07:32:48.408Z,94229.00
2023-05-15T07:33:48.348Z,94229.00
2023-05-15T07:34:48.349Z,94227.00
2023-05-15T07:35:48.327Z,94227.00
2023-05-15T07:36:48.332Z,94227.00
2023-05-15T07:37:49.186Z,94227.00
2023-05-15T07:38:48.368Z,94227.00
2023-05-15T07:39:48.493Z,94227.00
2023-05-15T07:40:48.458Z,94229.00
2023-05-15T07:41:48.500Z,94227.00
2023-05-15T07:42:48.547Z,94225.00
2023-05-15T07:43:48.628Z,94227.00
2023-05-15T07:44:49.573Z,94225.00
2023-05-15T07:45:48.923Z,94225.00
2023-05-15T07:46:48.729Z,94225.00
2023-05-15T07:47:48.755Z,94223.00
2023-05-15T07:48:48.758Z,94221.00
2023-05-15T07:49:48.785Z,94217.00
2023-05-15T07:50:48.844Z,94219.00
2023-05-15T07:51:48.973Z,94219.00
2023-05-15T07:52:48.901Z,94213.00
2023-05-15T07:53:48.932Z,94215.00
2023-05-15T07:54:48.977Z,94209.00
2023-05-15T07:55:49.015Z,94211.00
2023-05-15T07:56:49.042Z,94209.00
2023-05-15T07:57:53.386Z,94209.00
2023-05-15T07:58:49.129Z,94215.00
2023-05-15T07:59:49.120Z,94215.00
2023-05-15T08:00:49.047Z,94211.00
2023-05-15T08:01:49.066Z,94211.00
2023-05-15T08:02:49.161Z,94207.00
2023-05-15T08:03:49.165Z,94207.00
2023-05-15T08:04:49.076Z,94207.00
2023-05-15T08:05:49.019Z,94203.00
2023-05-15T08:06:49.040Z,94205.00
2023-05-15T08:07:49.018Z,94207.00
2023-05-15T08:08:48.981Z,94205.00
2023-05-15T08:09:48.976Z,94203.00
2023-05-15T08:10:48.970Z,94201.00
2023-05-15T08:11:49.185Z,94203.00
2023-05-15T08:12:49.170Z,94201.00
2023-05-15T08:13:49.137Z,94207.00
2023-05-15T08:14:48.936Z,94203.00
2023-05-15T08:15:48.948Z,94203.00
2023-05-15T08:16:48.942Z,94205.00
2023-05-15T08:17:49.159Z,94203.00
2023-05-15T08:18:48.930Z,94205.00
2023-05-15T08:19:48.922Z,94203.00
2023-05-15T08:20:48.948Z,94203.00
2023-05-15T08:21:48.912Z,94201.00
2023-05-15T08:22:48.916Z,94199.00
2023-05-15T08:23:48.915Z,94199.00
2023-05-15T08:24:48.917Z,94199.00
2023-05-15T08:25:48.885Z,94199.00
2023-05-15T08:26:48.887Z,94199.00
2023-05-15T08:27:49.189Z,94197.00
2023-05-15T08:28:48.880Z,94193.00
2023-05-15T08:29:48.857Z,94193.00
2023-05-15T08:30:49.143Z,94193.00
2023-05-15T08:31:48.870Z,94189.00
2023-05-15T08:32:49.228Z,94189.00
2023-05-15T08:33:48.835Z,94187.00
2023-05-15T08:34:48.815Z,94183.00
2023-05-15T08:35:48.835Z,94185.00
2023-05-15T08:36:48.800Z,94187.00
2023-05-15T08:37:48.815Z,94181.00
2023-05-15T08:38:48.781Z,94179.00
2023-05-15T08:39:48.782Z,94178.00
2023-05-15T08:40:48.785Z,94181.00
2023-05-15T08:41:48.803Z,94181.00
2023-05-15T08:42:49.169Z,94176.00
2023-05-15T08:43:48.853Z,94176.00
2023-05-15T08:44:48.864Z,94172.00
2023-05-15T08:45:48.889Z,94172.00
2023-05-15T08:46:48.919Z,94172.00
2023-05-15T08:47:48.934Z,94174.00
2023-05-15T08:48:48.897Z,94176.00
2023-05-15T08:49:48.907Z,94176.00
2023-05-15T08:50:48.927Z,94178.00
2023-05-15T08:51:48.938Z,94176.00
2023-05-15T08:52:48.964Z,94179.00
2023-05-15T08:53:48.932Z,94183.00
2023-05-15T08:54:48.951Z,94181.00
2023-05-15T08:55:48.941Z,94181.00
2023-05-15T08:56:48.935Z,94183.00
2023-05-15T08:57:48.976Z,94183.00
2023-05-15T08:58:48.942Z,94179.00
2023-05-15T08:59:48.939Z,94179.00
2023-05-15T09:00:48.930Z,94179.00
2023-05-15T09:01:48.971Z,94179.00
2023-05-15T09:02:49.030Z,94179.00
2023-05-15T09:03:49.031Z,94178.00
2023-05-15T09:04:48.941Z,94174.00
2023-05-15T09:05:48.920Z,94170.00
2023-05-15T09:06:48.924Z,94170.00
2023-05-15T09:07:48.939Z,94166.00
2023-05-15T09:08:48.916Z,94172.00
2023-05-15T09:09:48.897Z,94164.00
2023-05-15T09:10:48.894Z,94170.00
2023-05-15T09:11:48.965Z,94170.00
2023-05-15T09:12:48.911Z,94170.00
2023-05-15T09:13:48.892Z,94174.00
2023-05-15T09:14:48.910Z,94170.00
2023-05-15T09:15:48.909Z,94168.00
2023-05-15T09:16:48.976Z,94168.00
2023-05-15T09:17:49.015Z,94164.00
2023-05-15T09:18:48.997Z,94162.00
2023-05-15T09:19:48.938Z,94160.00
2023-05-15T09:20:48.974Z,94160.00
2023-05-15T09:21:49.010Z,94156.00
2023-05-15T09:22:49.006Z,94152.00
2023-05-15T09:23:49.046Z,94150.00
2023-05-15T09:24:49.117Z,94152.00
2023-05-15T09:25:49.086Z,94152.00
2023-05-15T09:26:49.090Z,94156.00
2023-05-15T09:27:49.117Z,94158.00
2023-05-15T09:28:49.129Z,94160.00
2023-05-15T09:29:49.154Z,94162.00
2023-05-15T09:30:49.162Z,94164.00
2023-05-15T09:31:49.221Z,94166.00
2023-05-15T09:32:49.250Z,94172.00
2023-05-15T09:33:49.196Z,94172.00
2023-05-15T09:34:49.186Z,94174.00
2023-05-15T09:35:49.213Z,94170.00
2023-05-15T09:36:49.227Z,94176.00
2023-05-15T09:37:49.168Z,94178.00
2023-05-15T09:38:49.227Z,94176.00
2023-05-15T09:39:49.233Z,94176.00
2023-05-15T09:40:49.253Z,94181.00
2023-05-15T09:41:49.176Z,94183.00
2023-05-15T09:42:49.187Z,94178.00
2023-05-15T09:43:49.189Z,94183.00
2023-05-15T09:44:49.236Z,94181.00
2023-05-15T09:45:49.288Z,94181.00
2023-05-15T09:46:49.396Z,94178.00
2023-05-15T09:47:49.462Z,94187.00
2023-05-15T09:48:49.384Z,94189.00
2023-05-15T09:49:49.358Z,94183.00
2023-05-15T09:50:49.393Z,94183.00
2023-05-15T09:51:49.456Z,94183.00
2023-05-15T09:52:49.708Z,94183.00
2023-05-15T09:53:49.554Z,94179.00
2023-05-15T09:54:50.496Z,94181.00
2023-05-15T09:55:49.606Z,94181.00
2023-05-15T09:56:49.658Z,94185.00
2023-05-15T09:57:49.726Z,94183.00
2023-05-15T09:58:49.815Z,94187.00
2023-05-15T09:59:49.824Z,94181.00
2023-05-15T10:00:49.926Z,94183.00
2023-05-15T10:01:49.956Z,94183.00
2023-05-15T10:02:49.981Z,94183.00
2023-05-15T10:03:49.999Z,94181.00
2023-05-15T10:04:50.120Z,94179.00
2023-05-15T10:05:50.226Z,94181.00
2023-05-15T10:06:50.254Z,94174.00
2023-05-15T10:07:50.292Z,94168.00
2023-05-15T10:08:50.328Z,94172.00
2023-05-15T10:09:50.359Z,94174.00
2023-05-15T10:10:50.420Z,94168.00
2023-05-15T10:11:50.520Z,94170.00
2023-05-15T10:12:50.535Z,94168.00
2023-05-15T10:13:50.588Z,94164.00
2023-05-15T10:14:50.607Z,94166.00
2023-05-15T10:15:50.673Z,94168.00
2023-05-15T10:16:50.695Z,94162.00
2023-05-15T10:17:50.809Z,94168.00
2023-05-15T10:18:50.824Z,94166.00
2023-05-15T10:20:51.849Z,94164.00
2023-05-15T10:21:50.843Z,94168.00
2023-05-15T10:22:50.858Z,94162.00
2023-05-15T10:23:50.827Z,94158.00
2023-05-15T10:24:50.867Z,94154.00
2023-05-15T10:25:50.831Z,94154.00
2023-05-15T10:26:50.809Z,94154.00
2023-05-15T10:27:50.793Z,94150.00
2023-05-15T10:28:50.864Z,94146.00
2023-05-15T10:29:50.777Z,94144.00
2023-05-15T10:30:50.807Z,94144.00
2023-05-15T10:31:50.852Z,94144.00
2023-05-15T10:32:50.845Z,94148.00
2023-05-15T10:33:51.286Z,94150.00
2023-05-15T10:34:50.759Z,94148.00
2023-05-15T10:35:50.746Z,94146.00
2023-05-15T10:36:50.796Z,94150.00
2023-05-15T10:37:50.721Z,94152.00
2023-05-15T10:38:50.735Z,94154.00
2023-05-15T10:39:50.724Z,94154.00
2023-05-15T10:40:50.733Z,94154.00
2023-05-15T10:41:50.706Z,94152.00
2023-05-15T10:42:50.703Z,94152.00
2023-05-15T10:43:50.682Z,94150.00
2023-05-15T10:44:50.703Z,94146.00
2023-05-15T10:45:50.718Z,94148.00
2023-05-15T10:46:50.734Z,94146.00
2023-05-15T10:47:50.762Z,94148.00
2023-05-15T10:48:50.674Z,94148.00
2023-05-15T10:49:50.674Z,94148.00
2023-05-15T10:50:50.678Z,94146.00
2023-05-15T10:51:50.698Z,94148.00
2023-05-15T10:52:50.682Z,94148.00
2023-05-15T10:53:50.722Z,94148.00
2023-05-15T10:54:50.739Z,94154.00
2023-05-15T10:55:50.744Z,94150.00
2023-05-15T10:56:52.273Z,94152.00
2023-05-15T10:57:50.689Z,94156.00
2023-05-15T10:58:50.667Z,94152.00
2023-05-15T10:59:50.670Z,94150.00
2023-05-15T11:00:50.732Z,94152.00
2023-05-15T11:01:50.688Z,94150.00
2023-05-15T11:02:50.737Z,94146.00
2023-05-15T11:03:52.018Z,94148.00
2023-05-15T11:04:50.735Z,94148.00
2023-05-15T11:05:50.721Z,94146.00
2023-05-15T11:06:50.698Z,94146.00
2023-05-15T11:07:50.670Z,94146.00
2023-05-15T11:08:50.693Z,94146.00
2023-05-15T11:09:50.721Z,94146.00
2023-05-15T11:10:50.666Z,94152.00
2023-05-15T11:11:50.671Z,94148.00
2023-05-15T11:12:50.653Z,94152.00
2023-05-15T11:13:50.670Z,94150.00
2023-05-15T11:14:50.678Z,94150.00
2023-05-15T11:15:50.658Z,94152.00
2023-05-15T11:16:50.676Z,94154.00
2023-05-15T11:17:50.647Z,94154.00
2023-05-15T11:18:50.612Z,94154.00
2023-05-15T11:19:50.652Z,94156.00
2023-05-15T11:20:50.627Z,94158.00
2023-05-15T11:21:50.586Z,94158.00
2023-05-15T11:22:50.579Z,94158.00
2023-05-15T11:23:50.759Z,94160.00
2023-05-15T11:24:50.735Z,94160.00
2023-05-15T11:25:50.557Z,94164.00
2023-05-15T11:26:50.579Z,94162.00
2023-05-15T11:27:50.555Z,94164.00
2023-05-15T11:28:50.544Z,94164.00
2023-05-15T11:29:50.816Z,94166.00
2023-05-15T11:30:50.549Z,94162.00
2023-05-15T11:31:50.565Z,94166.00
2023-05-15T11:32:50.548Z,94164.00
2023-05-15T11:33:52.216Z,94166.00
2023-05-15T11:34:50.500Z,94166.00
2023-05-15T11:35:50.608Z,94166.00
2023-05-15T11:36:50.554Z,94168.00
2023-05-15T11:37:50.486Z,94170.00
2023-05-15T11:38:50.482Z,94170.00
2023-05-15T11:39:50.498Z,94168.00
2023-05-15T11:40:50.456Z,94168.00
2023-05-15T11:41:50.456Z,94166.00
2023-05-15T11:42:50.442Z,94170.00
2023-05-15T11:43:50.509Z,94168.00
2023-05-15T11:44:50.425Z,94168.00
2023-05-15T11:45:50.426Z,94172.00